Pagina principale
METAR-TAF:

METAR-TAF

Aeroporti :

Springbok, Sudafrica

latitudine: 29-40S, longitudine: 17-53E, altezza: 1006 m

Osservazione

Il bollettino è stato emesso 9 ore e 53 minuti fa, alle 09:55 UTC
Vento 11 kt da nord/nord-est
Temperature 22°C
Umidità 21%
Pressione 1027 hPa
Visibilità 10 km o più
nessuna nube inferiore a 1500 m e nessun cumulonembo

METAR: FASB 190955Z 02011KT CAVOK 22/M01 Q1027

Ora: 21:48 (19:48 UTC)


TAF: mancante

Osservazioni e previsioni meteorologiche di più di 4000 aeroporti (messaggi METAR e TAF).

Le stazioni disponibili sono rappresentate dai dischi gialli e rossi sulla carta.

Puntare il mouse per vedere il nome della stazione.

Clicca sopra per visualizzare le osservazioni e previsioni meteorologiche.

Per cambiare la mappa : fare clic sui pulsanti verdi con una croce nera per ingrandire, il pulsante verde con un trattino per diminuire, o sulla freccia verde per le mappe adiacenti.


METAR-TAF: